createdAt,value
2019-05-03T00:00:42.557Z,20.08
2019-05-03T00:03:12.740Z,20.83
2019-05-03T00:05:42.811Z,21.60
2019-05-03T00:08:12.637Z,22.90
2019-05-03T00:10:42.501Z,22.77
2019-05-03T00:13:12.507Z,22.70
2019-05-03T00:15:42.926Z,22.35
2019-05-03T00:18:11.761Z,21.82
2019-05-03T00:20:41.988Z,23.70
2019-05-03T00:23:12.009Z,24.45
2019-05-03T00:25:41.818Z,24.35
2019-05-03T00:28:10.841Z,25.15
2019-05-03T00:30:39.236Z,24.23
2019-05-03T00:33:07.628Z,24.57
2019-05-03T00:35:43.522Z,26.10
2019-05-03T00:38:12.798Z,23.42
2019-05-03T00:40:41.703Z,22.75
2019-05-03T00:43:11.580Z,23.85
2019-05-03T00:45:42.135Z,27.82
2019-05-03T00:48:10.140Z,27.85
2019-05-03T00:50:38.493Z,30.05
2019-05-03T00:53:06.880Z,25.85
2019-05-03T00:55:35.247Z,32.40
2019-05-03T00:58:03.686Z,31.30
2019-05-03T01:00:32.570Z,29.35
2019-05-03T01:03:02.140Z,31.97
2019-05-03T01:05:32.952Z,34.18
2019-05-03T01:08:01.974Z,31.90
2019-05-03T01:10:30.489Z,34.53
2019-05-03T01:12:58.852Z,26.40
2019-05-03T01:15:32.047Z,26.97
2019-05-03T01:18:02.100Z,29.15
2019-05-03T01:20:31.997Z,28.07
2019-05-03T01:23:02.076Z,27.67
2019-05-03T01:25:35.145Z,28.40
2019-05-03T01:28:01.555Z,28.52
2019-05-03T01:30:31.950Z,23.83
2019-05-03T01:33:02.670Z,25.43
2019-05-03T01:35:32.303Z,25.77
2019-05-03T01:38:02.596Z,25.57
2019-05-03T01:40:32.574Z,26.87
2019-05-03T01:43:02.219Z,26.87
2019-05-03T01:45:31.833Z,27.00
2019-05-03T01:48:02.118Z,28.38
2019-05-03T01:50:47.544Z,28.83
2019-05-03T01:53:17.620Z,27.50
2019-05-03T01:55:52.711Z,26.50
2019-05-03T01:58:24.372Z,25.20
2019-05-03T02:00:54.424Z,25.75
2019-05-03T02:03:24.448Z,23.18
2019-05-03T02:05:54.368Z,24.43
2019-05-03T02:08:22.710Z,24.80
2019-05-03T02:10:51.764Z,23.47
2019-05-03T02:13:20.323Z,24.43
2019-05-03T02:15:48.696Z,24.87
2019-05-03T02:18:17.074Z,25.43
2019-05-03T02:20:45.428Z,24.32
2019-05-03T02:23:13.782Z,24.70
2019-05-03T02:25:42.167Z,23.92
2019-05-03T02:28:12.490Z,25.25
2019-05-03T02:30:44.197Z,24.40
2019-05-03T02:33:13.456Z,24.45
2019-05-03T02:35:42.974Z,24.72
2019-05-03T02:38:12.997Z,25.68
2019-05-03T02:40:42.915Z,24.67
2019-05-03T02:43:13.275Z,25.48
2019-05-03T02:45:51.402Z,26.62
2019-05-03T02:48:25.500Z,27.50
2019-05-03T02:50:56.037Z,26.68
2019-05-03T02:53:25.818Z,27.98
2019-05-03T02:55:56.068Z,26.82
2019-05-03T02:58:25.495Z,26.82
2019-05-03T03:00:56.991Z,27.82
2019-05-03T03:03:26.218Z,25.70
2019-05-03T03:05:56.553Z,18.80
2019-05-03T03:08:27.648Z,21.12
2019-05-03T03:11:02.113Z,20.05
2019-05-03T03:13:31.694Z,19.40
2019-05-03T03:16:02.962Z,18.65
2019-05-03T03:18:36.375Z,21.20
2019-05-03T03:21:05.890Z,19.73
2019-05-03T03:23:49.638Z,18.95
2019-05-03T03:26:33.304Z,18.30
2019-05-03T03:28:50.937Z,18.57
2019-05-03T03:31:37.865Z,18.35
2019-05-03T03:34:08.620Z,18.73
2019-05-03T03:36:59.271Z,19.20
2019-05-03T03:39:16.636Z,18.23
2019-05-03T03:41:45.670Z,19.15
2019-05-03T03:44:15.323Z,18.35
2019-05-03T03:46:45.426Z,19.70
2019-05-03T03:49:15.530Z,19.25
2019-05-03T03:51:45.552Z,19.37
2019-05-03T03:54:17.365Z,19.25
2019-05-03T03:56:56.148Z,19.30
2019-05-03T03:59:15.986Z,19.55
2019-05-03T04:01:45.702Z,19.90
2019-05-03T04:04:16.089Z,20.35
2019-05-03T04:06:46.613Z,20.82
2019-05-03T04:09:16.117Z,20.27
2019-05-03T04:11:46.347Z,20.53
2019-05-03T04:14:16.506Z,22.87
2019-05-03T04:16:50.767Z,23.45
2019-05-03T04:19:20.822Z,23.40
2019-05-03T04:21:49.183Z,23.20
2019-05-03T04:24:17.528Z,23.90
2019-05-03T04:26:45.920Z,25.23
2019-05-03T04:29:16.134Z,24.65
2019-05-03T04:31:45.767Z,26.57
2019-05-03T04:34:16.279Z,24.85
2019-05-03T04:36:46.161Z,24.30
2019-05-03T04:39:19.166Z,25.55
2019-05-03T04:41:45.353Z,25.48
2019-05-03T04:44:15.490Z,24.97
2019-05-03T04:46:46.262Z,24.77
2019-05-03T04:49:15.173Z,23.77
2019-05-03T04:51:46.447Z,23.70
2019-05-03T04:54:25.244Z,22.40
2019-05-03T04:56:56.381Z,22.25
2019-05-03T04:59:25.499Z,21.77
2019-05-03T05:01:55.993Z,22.40
2019-05-03T05:04:25.402Z,21.23
2019-05-03T05:06:55.527Z,20.37
2019-05-03T05:09:25.832Z,19.52
2019-05-03T05:11:54.945Z,19.60
2019-05-03T05:14:25.675Z,20.30
2019-05-03T05:17:06.162Z,20.67
2019-05-03T05:19:42.242Z,18.30
2019-05-03T05:22:15.624Z,18.90
2019-05-03T05:24:44.967Z,16.75
2019-05-03T05:27:15.168Z,17.02
2019-05-03T05:29:45.070Z,19.12
2019-05-03T05:32:14.469Z,17.73
2019-05-03T05:34:42.920Z,19.37
2019-05-03T05:37:14.526Z,17.60
2019-05-03T05:39:44.655Z,17.70
2019-05-03T05:42:16.344Z,16.42
2019-05-03T05:44:45.468Z,15.68
2019-05-03T05:47:15.601Z,15.20
2019-05-03T05:49:48.300Z,15.80
2019-05-03T05:52:16.609Z,16.70
2019-05-03T05:54:46.668Z,15.25
2019-05-03T05:57:34.656Z,16.65
2019-05-03T06:00:08.283Z,15.88
2019-05-03T06:02:36.673Z,14.28
2019-05-03T06:05:06.110Z,14.20
2019-05-03T06:07:42.037Z,14.50
2019-05-03T06:10:21.211Z,15.33
2019-05-03T06:12:51.174Z,15.23
2019-05-03T06:15:21.135Z,15.13
2019-05-03T06:17:51.099Z,15.00
2019-05-03T06:20:24.575Z,15.15
2019-05-03T06:22:54.975Z,14.23
2019-05-03T06:25:26.601Z,13.70
2019-05-03T06:27:55.199Z,13.98
2019-05-03T06:30:30.914Z,13.72
2019-05-03T06:32:59.260Z,13.85
2019-05-03T06:35:27.852Z,13.25
2019-05-03T06:37:56.730Z,13.62
2019-05-03T06:40:26.067Z,12.45
2019-05-03T06:43:02.895Z,12.85
2019-05-03T06:45:25.154Z,12.30
2019-05-03T06:47:55.089Z,12.33
2019-05-03T06:50:27.526Z,12.73
2019-05-03T06:52:54.794Z,11.60
2019-05-03T06:55:24.746Z,11.40
2019-05-03T06:57:54.595Z,10.60
2019-05-03T07:00:35.123Z,11.65
2019-05-03T07:03:05.253Z,10.58
2019-05-03T07:05:35.486Z,11.10
2019-05-03T07:08:22.045Z,11.65
2019-05-03T07:10:52.390Z,10.85
2019-05-03T07:13:20.780Z,10.35
2019-05-03T07:15:49.109Z,10.60
2019-05-03T07:18:17.417Z,9.53
2019-05-03T07:20:50.340Z,9.90
2019-05-03T07:23:18.690Z,9.83
2019-05-03T07:25:46.998Z,10.50
2019-05-03T07:28:15.292Z,10.45
2019-05-03T07:30:45.375Z,10.85
2019-05-03T07:33:21.259Z,10.77
2019-05-03T07:35:49.595Z,10.98
2019-05-03T07:38:17.904Z,10.95
2019-05-03T07:40:46.305Z,11.63
2019-05-03T07:43:14.927Z,12.28
2019-05-03T07:45:44.657Z,11.93
2019-05-03T07:48:14.934Z,13.20
2019-05-03T07:50:44.715Z,12.68
2019-05-03T07:53:15.004Z,12.85
2019-05-03T07:55:59.926Z,13.43
2019-05-03T07:58:29.914Z,12.85
2019-05-03T08:01:06.291Z,13.38
2019-05-03T08:03:29.985Z,13.78
2019-05-03T08:05:58.744Z,11.70
2019-05-03T08:08:27.028Z,11.95
2019-05-03T08:10:55.350Z,13.95
2019-05-03T08:16:35.324Z,13.32
2019-05-03T08:19:04.884Z,15.63
2019-05-03T08:21:38.164Z,15.43
2019-05-03T08:24:04.558Z,15.10
2019-05-03T08:26:35.056Z,15.10
2019-05-03T08:29:15.238Z,17.35
2019-05-03T08:31:37.851Z,16.80
2019-05-03T08:34:15.356Z,17.60
2019-05-03T08:37:05.225Z,15.83
2019-05-03T08:39:35.558Z,16.57
2019-05-03T08:42:08.207Z,15.88
2019-05-03T08:44:36.911Z,15.65
2019-05-03T08:47:05.383Z,15.03
2019-05-03T08:49:34.734Z,15.20
2019-05-03T08:52:05.276Z,12.78
2019-05-03T08:54:34.729Z,12.50
2019-05-03T08:57:03.390Z,12.10
2019-05-03T08:59:32.738Z,13.58
2019-05-03T09:02:03.506Z,12.40
2019-05-03T09:04:37.403Z,11.80
2019-05-03T09:07:01.614Z,10.38
2019-05-03T09:09:34.867Z,11.53
2019-05-03T09:12:04.715Z,13.00
2019-05-03T09:14:42.544Z,11.83
2019-05-03T09:17:04.959Z,12.33
2019-05-03T09:19:34.685Z,11.93
2019-05-03T09:22:05.956Z,12.03
2019-05-03T09:24:35.158Z,11.22
2019-05-03T09:27:05.102Z,9.13
2019-05-03T09:29:41.086Z,8.03
2019-05-03T09:32:05.163Z,8.08
2019-05-03T09:34:35.157Z,7.55
2019-05-03T09:37:04.773Z,8.13
2019-05-03T09:39:35.310Z,7.40
2019-05-03T09:42:04.725Z,6.80
2019-05-03T09:44:35.047Z,5.92
2019-05-03T09:47:05.396Z,6.83
2019-05-03T09:49:34.767Z,5.30
2019-05-03T09:52:07.977Z,4.35
2019-05-03T09:54:41.036Z,4.60
2019-05-03T09:57:09.325Z,4.47
2019-05-03T09:59:37.634Z,4.28
2019-05-03T10:02:06.313Z,3.90
2019-05-03T10:04:36.678Z,4.80
2019-05-03T10:07:04.748Z,5.10
2019-05-03T10:09:35.410Z,4.10
2019-05-03T10:12:05.564Z,4.22
2019-05-03T10:14:34.132Z,5.20
2019-05-03T10:17:09.886Z,4.30
2019-05-03T10:19:40.499Z,4.58
2019-05-03T10:22:08.293Z,4.50
2019-05-03T10:24:36.620Z,4.05
2019-05-03T10:27:05.585Z,4.37
2019-05-03T10:29:34.094Z,5.13
2019-05-03T10:32:04.074Z,6.37
2019-05-03T10:34:32.366Z,5.22
2019-05-03T10:37:00.659Z,4.70
2019-05-03T10:39:28.989Z,5.35
2019-05-03T10:41:57.288Z,4.58
2019-05-03T10:44:25.897Z,4.70
2019-05-03T10:46:55.946Z,8.90
2019-05-03T10:49:24.571Z,5.97
2019-05-03T10:51:54.910Z,5.15
2019-05-03T10:54:23.457Z,6.33
2019-05-03T10:57:02.694Z,4.90
2019-05-03T10:59:31.071Z,4.72
2019-05-03T11:02:01.027Z,7.22
2019-05-03T11:04:30.282Z,9.13
2019-05-03T11:06:58.656Z,9.30
2019-05-03T11:09:26.959Z,6.58
2019-05-03T11:11:55.658Z,8.03
2019-05-03T11:14:25.400Z,6.42
2019-05-03T11:16:55.292Z,7.25
2019-05-03T11:19:25.464Z,7.12
2019-05-03T11:21:54.773Z,6.67
2019-05-03T11:24:25.151Z,8.05
2019-05-03T11:26:55.816Z,11.25
2019-05-03T11:29:24.756Z,13.93
2019-05-03T11:31:57.622Z,12.98
2019-05-03T11:34:30.350Z,11.65
2019-05-03T11:37:06.353Z,6.97
2019-05-03T11:39:34.674Z,9.33
2019-05-03T11:42:04.665Z,11.30
2019-05-03T11:44:39.161Z,10.93
2019-05-03T11:47:08.192Z,11.17
2019-05-03T11:49:36.643Z,7.78
2019-05-03T11:52:06.549Z,10.68
2019-05-03T12:17:07.741Z,10.25
2019-05-03T12:19:12.749Z,10.63
2019-05-03T12:21:31.360Z,10.73
2019-05-03T12:24:16.914Z,11.03
2019-05-03T12:26:47.060Z,10.33
2019-05-03T12:29:15.505Z,11.00
2019-05-03T12:31:45.582Z,10.90
2019-05-03T12:34:15.928Z,10.93
2019-05-03T12:36:44.139Z,11.38
2019-05-03T12:39:24.197Z,11.40
2019-05-03T12:41:42.549Z,11.88
2019-05-03T12:44:10.872Z,10.98
2019-05-03T12:46:39.187Z,10.90
2019-05-03T12:49:07.499Z,11.57
2019-05-03T12:51:35.803Z,11.35
2019-05-03T12:54:04.861Z,12.27
2019-05-03T12:56:35.738Z,12.35
2019-05-03T12:59:05.782Z,11.20
2019-05-03T13:01:41.890Z,11.78
2019-05-03T13:04:24.701Z,10.85
2019-05-03T13:07:10.938Z,11.22
2019-05-03T13:09:39.230Z,10.53
2019-05-03T13:12:09.104Z,11.68
2019-05-03T13:14:37.446Z,12.13
2019-05-03T13:17:05.757Z,12.50
2019-05-03T13:19:34.929Z,11.97
2019-05-03T13:22:03.393Z,12.20
2019-05-03T13:24:31.713Z,13.62
2019-05-03T13:27:00.019Z,12.13
2019-05-03T13:29:28.363Z,11.97
2019-05-03T13:32:01.900Z,12.60
2019-05-03T13:34:26.679Z,13.50
2019-05-03T13:36:55.065Z,12.20
2019-05-03T13:39:26.332Z,12.53
2019-05-03T13:41:54.942Z,12.53
2019-05-03T13:44:24.778Z,12.00
2019-05-03T13:46:55.193Z,12.30
2019-05-03T13:49:26.188Z,13.53
2019-05-03T13:51:53.821Z,12.68
2019-05-03T13:54:22.422Z,12.50
2019-05-03T13:56:50.755Z,13.67
2019-05-03T13:59:22.101Z,12.43
2019-05-03T14:01:49.165Z,11.53
2019-05-03T14:04:17.475Z,11.57
2019-05-03T14:17:16.424Z,10.77
2019-05-03T14:19:45.212Z,11.90
2019-05-03T14:22:15.591Z,11.38
2019-05-03T14:24:44.579Z,11.20
2019-05-03T14:27:14.467Z,11.05
2019-05-03T14:29:42.918Z,11.57
2019-05-03T14:32:11.268Z,11.95
2019-05-03T14:34:39.570Z,10.85
2019-05-03T14:37:07.877Z,11.45
2019-05-03T14:39:36.249Z,10.98
2019-05-03T14:42:04.825Z,10.78
2019-05-03T14:44:35.571Z,11.00
2019-05-03T14:47:05.616Z,12.65
2019-05-03T14:49:34.611Z,10.60
2019-05-03T14:52:05.412Z,11.13
2019-05-03T14:54:34.837Z,11.12
2019-05-03T14:57:04.801Z,10.30
2019-05-03T14:59:45.319Z,10.75
2019-05-03T15:02:21.510Z,10.70
2019-05-03T15:04:50.264Z,11.05
2019-05-03T15:10:02.218Z,13.28
2019-05-03T15:12:30.525Z,6.60
2019-05-03T15:14:58.825Z,10.53
2019-05-03T15:17:27.154Z,9.95
2019-05-03T15:19:55.461Z,10.05
2019-05-03T15:22:25.318Z,10.75
2019-05-03T15:24:54.559Z,10.98
2019-05-03T15:27:24.846Z,10.68
2019-05-03T15:29:55.355Z,10.32
2019-05-03T15:32:23.386Z,10.45
2019-05-03T15:34:51.695Z,9.80
2019-05-03T15:37:20.019Z,10.25
2019-05-03T15:39:48.624Z,10.40
2019-05-03T15:42:18.002Z,9.10
2019-05-03T15:44:48.276Z,8.88
2019-05-03T15:47:18.298Z,8.88
2019-05-03T15:49:46.642Z,9.80
2019-05-03T15:52:15.241Z,8.65
2019-05-03T15:54:44.477Z,8.10
2019-05-03T15:57:14.471Z,7.22
2019-05-03T15:59:44.537Z,9.75
2019-05-03T16:02:15.097Z,8.58
2019-05-03T16:04:44.797Z,8.75
2019-05-03T16:07:14.434Z,7.95
2019-05-03T16:09:44.469Z,9.33
2019-05-03T16:12:14.553Z,8.83
2019-05-03T16:14:44.523Z,9.03
2019-05-03T16:17:14.614Z,8.70
2019-05-03T16:19:47.370Z,7.85
2019-05-03T16:22:14.368Z,8.40
2019-05-03T16:24:44.756Z,8.45
2019-05-03T16:27:29.967Z,8.65
2019-05-03T16:29:58.882Z,8.38
2019-05-03T16:32:27.166Z,8.40
2019-05-03T16:34:55.477Z,8.75
2019-05-03T16:37:25.484Z,9.00
2019-05-03T16:39:54.768Z,8.63
2019-05-03T16:42:24.636Z,9.23
2019-05-03T16:44:54.887Z,7.95
2019-05-03T16:47:24.954Z,7.25
2019-05-03T16:49:53.385Z,7.17
2019-05-03T16:52:21.707Z,7.87
2019-05-03T16:54:50.396Z,7.67
2019-05-03T16:57:18.731Z,8.03
2019-05-03T16:59:47.056Z,8.30
2019-05-03T17:02:17.382Z,8.15
2019-05-03T17:05:02.498Z,8.20
2019-05-03T17:07:32.437Z,8.70
2019-05-03T17:10:07.483Z,8.23
2019-05-03T17:12:37.298Z,8.73
2019-05-03T17:15:08.454Z,7.60
2019-05-03T17:17:36.762Z,6.97
2019-05-03T17:20:08.206Z,8.68
2019-05-03T17:22:36.861Z,9.30
2019-05-03T17:25:06.562Z,8.48
2019-05-03T17:27:35.085Z,8.50
2019-05-03T17:30:05.833Z,11.18
2019-05-03T17:32:35.081Z,8.88
2019-05-03T17:35:05.744Z,9.20
2019-05-03T17:37:34.696Z,9.30
2019-05-03T17:40:07.663Z,8.78
2019-05-03T17:42:54.726Z,9.10
2019-05-03T17:45:25.364Z,10.55
2019-05-03T17:47:54.871Z,8.90
2019-05-03T17:50:23.411Z,8.85
2019-05-03T17:52:54.594Z,8.83
2019-05-03T17:55:36.459Z,8.80
2019-05-03T17:58:09.297Z,9.33
2019-05-03T18:00:39.271Z,9.15
2019-05-03T18:03:08.745Z,9.50
2019-05-03T18:05:55.211Z,9.55
2019-05-03T18:08:35.541Z,9.63
2019-05-03T18:11:11.770Z,8.85
2019-05-03T18:13:40.087Z,9.00
2019-05-03T18:16:08.387Z,8.78
2019-05-03T18:18:36.728Z,8.90
2019-05-03T18:21:05.039Z,10.48
2019-05-03T18:23:35.012Z,9.20
2019-05-03T18:26:05.158Z,9.40
2019-05-03T18:28:35.366Z,10.93
2019-05-03T18:31:05.408Z,9.50
2019-05-03T18:33:33.837Z,11.00
2019-05-03T18:36:02.142Z,9.25
2019-05-03T18:38:32.106Z,9.90
2019-05-03T18:41:00.797Z,8.95
2019-05-03T18:43:34.587Z,8.80
2019-05-03T18:46:21.156Z,9.20
2019-05-03T18:48:49.476Z,10.40
2019-05-03T18:51:17.791Z,9.98
2019-05-03T18:53:46.119Z,10.05
2019-05-03T18:56:14.821Z,9.85
2019-05-03T18:58:44.866Z,10.35
2019-05-03T19:01:14.798Z,10.20
2019-05-03T19:03:45.234Z,10.00
2019-05-03T19:06:13.559Z,11.03
2019-05-03T19:08:44.765Z,11.05
2019-05-03T19:11:27.291Z,10.38
2019-05-03T19:13:59.733Z,10.60
2019-05-03T19:16:29.851Z,10.20
2019-05-03T19:18:58.141Z,10.15
2019-05-03T19:21:26.481Z,10.33
2019-05-03T19:23:54.784Z,10.53
2019-05-03T19:26:24.816Z,10.60
2019-05-03T19:28:54.879Z,10.65
2019-05-03T19:31:25.113Z,10.72
2019-05-03T19:33:55.040Z,10.88
2019-05-03T19:36:23.868Z,11.10
2019-05-03T19:38:52.230Z,11.30
2019-05-03T19:41:20.522Z,11.45
2019-05-03T19:43:48.866Z,11.37
2019-05-03T19:46:17.187Z,11.63
2019-05-03T19:48:45.481Z,10.80
2019-05-03T19:51:13.820Z,11.57
2019-05-03T19:53:54.869Z,11.43
2019-05-03T19:56:22.757Z,10.98
2019-05-03T19:58:52.751Z,11.45
2019-05-03T20:01:22.718Z,11.22
2019-05-03T20:03:58.866Z,8.13
2019-05-03T20:06:35.000Z,11.35
2019-05-03T20:09:10.829Z,11.70
2019-05-03T20:11:39.130Z,11.70
2019-05-03T20:14:07.442Z,11.80
2019-05-03T20:16:35.775Z,11.53
2019-05-03T20:19:17.217Z,11.28
2019-05-03T20:21:34.362Z,11.83
2019-05-03T20:24:02.695Z,12.28
2019-05-03T20:26:30.997Z,11.60
2019-05-03T20:28:59.307Z,12.50
2019-05-03T20:31:27.652Z,12.25
2019-05-03T20:33:55.971Z,12.13
2019-05-03T20:36:24.259Z,11.65
2019-05-03T20:38:52.597Z,12.53
2019-05-03T20:41:20.883Z,12.30
2019-05-03T20:43:59.644Z,12.53
2019-05-03T20:46:42.219Z,13.20
2019-05-03T20:49:12.270Z,13.62
2019-05-03T20:51:40.616Z,13.50
2019-05-03T20:54:08.918Z,13.58
2019-05-03T20:56:37.261Z,13.95
2019-05-03T20:59:05.564Z,13.75
2019-05-03T21:01:34.769Z,14.10
2019-05-03T21:04:04.780Z,14.73
2019-05-03T21:06:35.847Z,14.93
2019-05-03T21:09:04.739Z,14.30
2019-05-03T21:11:33.092Z,14.50
2019-05-03T21:14:01.390Z,15.13
2019-05-03T21:16:31.352Z,15.05
2019-05-03T21:19:04.966Z,14.30
2019-05-03T21:21:37.770Z,14.90
2019-05-03T21:24:07.496Z,15.08
2019-05-03T21:26:35.811Z,17.15
2019-05-03T21:29:04.806Z,16.17
2019-05-03T21:31:35.201Z,17.73
2019-05-03T21:34:05.505Z,16.67
2019-05-03T21:36:34.864Z,17.25
2019-05-03T21:39:05.332Z,17.32
2019-05-03T21:41:35.256Z,18.55
2019-05-03T21:44:04.817Z,19.50
2019-05-03T21:46:37.830Z,18.00
2019-05-03T21:49:10.455Z,18.65
2019-05-03T21:51:38.783Z,19.25
2019-05-03T21:54:07.111Z,19.85
2019-05-03T21:56:35.711Z,19.77
2019-05-03T21:59:05.592Z,20.37
2019-05-03T22:01:37.471Z,22.02
2019-05-03T22:04:05.495Z,23.35
2019-05-03T22:06:35.060Z,23.92
2019-05-03T22:09:04.623Z,24.95
2019-05-03T22:11:33.026Z,25.57
2019-05-03T22:14:04.539Z,25.47
2019-05-03T22:16:40.342Z,23.85
2019-05-03T22:19:08.669Z,25.17
2019-05-03T22:21:45.280Z,25.45
2019-05-03T22:24:25.265Z,23.10
2019-05-03T22:26:55.518Z,24.57
2019-05-03T22:29:25.447Z,26.02
2019-05-03T22:31:54.830Z,26.07
2019-05-03T22:34:25.487Z,25.00
2019-05-03T22:36:54.862Z,15.97
2019-05-03T22:39:25.036Z,16.50
2019-05-03T22:41:53.228Z,14.28
2019-05-03T22:44:21.871Z,14.07
2019-05-03T22:46:50.218Z,13.22
2019-05-03T22:49:18.532Z,12.90
2019-05-03T22:51:46.845Z,12.45
2019-05-03T22:54:15.477Z,13.72
2019-05-03T22:56:44.766Z,12.63
2019-05-03T22:59:14.725Z,13.80
2019-05-03T23:01:45.590Z,12.87
2019-05-03T23:04:14.638Z,14.63
2019-05-03T23:06:46.740Z,14.28
2019-05-03T23:09:15.654Z,16.15
2019-05-03T23:11:44.729Z,16.47
2019-05-03T23:14:15.088Z,16.55
2019-05-03T23:16:44.923Z,19.62
2019-05-03T23:19:14.883Z,19.40
2019-05-03T23:21:45.199Z,20.30
2019-05-03T23:24:15.422Z,19.07
2019-05-03T23:26:45.200Z,13.05
2019-05-03T23:29:13.720Z,14.00
2019-05-03T23:31:42.028Z,13.83
2019-05-03T23:34:10.396Z,13.53
2019-05-03T23:36:38.710Z,11.28
2019-05-03T23:39:07.931Z,10.70
2019-05-03T23:41:36.309Z,10.13
2019-05-03T23:44:04.830Z,7.67
2019-05-03T23:46:35.011Z,6.90
2019-05-03T23:49:03.331Z,7.08
2019-05-03T23:51:51.574Z,6.97
2019-05-03T23:54:19.888Z,7.12
2019-05-03T23:56:48.176Z,6.22
2019-05-03T23:59:16.835Z,5.37
